createdAt,value
2023-01-03T00:01:34.303Z,16.65
2023-01-03T00:04:01.694Z,14.68
2023-01-03T00:06:31.127Z,15.52
2023-01-03T00:08:59.621Z,14.57
2023-01-03T00:11:49.181Z,15.85
2023-01-03T00:14:19.688Z,13.38
2023-01-03T00:16:50.589Z,14.70
2023-01-03T00:19:22.859Z,14.23
2023-01-03T00:21:50.237Z,14.00
2023-01-03T00:24:17.647Z,13.82
2023-01-03T00:26:46.295Z,12.82
2023-01-03T00:29:14.002Z,13.93
2023-01-03T00:31:42.357Z,12.43
2023-01-03T00:34:09.759Z,13.50
2023-01-03T00:36:39.724Z,12.27
2023-01-03T00:39:07.262Z,12.40
2023-01-03T00:41:34.790Z,13.95
2023-01-03T00:44:03.621Z,13.18
2023-01-03T00:46:30.931Z,12.30
2023-01-03T00:48:57.877Z,12.48
2023-01-03T00:51:26.847Z,12.50
2023-01-03T00:53:56.147Z,13.20
2023-01-03T00:56:28.417Z,12.55
2023-01-03T00:58:55.591Z,12.45
2023-01-03T01:01:26.663Z,12.88
2023-01-03T01:03:59.637Z,13.02
2023-01-03T01:06:28.803Z,12.38
2023-01-03T01:08:57.741Z,13.32
2023-01-03T01:13:53.326Z,13.35
2023-01-03T01:16:22.518Z,16.25
2023-01-03T01:18:53.781Z,15.98
2023-01-03T01:21:23.319Z,14.45
2023-01-03T01:23:51.137Z,13.35
2023-01-03T01:26:20.739Z,13.93
2023-01-03T01:31:17.066Z,23.58
2023-01-03T01:33:47.314Z,21.40
2023-01-03T01:36:18.724Z,16.08
2023-01-03T01:38:46.168Z,15.05
2023-01-03T01:41:15.239Z,15.18
2023-01-03T01:44:14.959Z,14.93
2023-01-03T01:46:42.898Z,12.82
2023-01-03T01:49:15.426Z,12.48
2023-01-03T01:51:44.499Z,12.95
2023-01-03T01:54:11.855Z,13.10
2023-01-03T01:56:41.553Z,12.88
2023-01-03T01:59:09.566Z,13.27
2023-01-03T02:01:38.430Z,12.70
2023-01-03T02:04:15.887Z,13.43
2023-01-03T02:06:44.499Z,11.88
2023-01-03T02:09:11.446Z,13.10
2023-01-03T02:11:51.611Z,12.27
2023-01-03T02:14:39.380Z,11.60
2023-01-03T02:17:12.311Z,12.80
2023-01-03T02:20:00.479Z,13.02
2023-01-03T02:22:56.367Z,13.52
2023-01-03T02:25:57.864Z,14.18
2023-01-03T02:28:56.900Z,12.68
2023-01-03T02:31:30.443Z,13.07
2023-01-03T02:34:04.697Z,11.88
2023-01-03T02:36:44.670Z,12.32
2023-01-03T02:39:23.509Z,13.05
2023-01-03T02:44:49.281Z,11.93
2023-01-03T02:47:21.999Z,11.95
2023-01-03T02:49:51.674Z,12.77
2023-01-03T02:52:24.109Z,12.43
2023-01-03T02:54:56.957Z,11.68
2023-01-03T02:57:29.113Z,14.02
2023-01-03T03:00:01.072Z,13.68
2023-01-03T03:02:33.747Z,14.25
2023-01-03T03:05:05.386Z,14.05
2023-01-03T03:07:35.651Z,13.55
2023-01-03T03:10:21.661Z,14.27
2023-01-03T03:13:12.609Z,14.40
2023-01-03T03:15:47.406Z,14.57
2023-01-03T03:18:19.716Z,14.68
2023-01-03T03:21:05.662Z,15.82
2023-01-03T03:23:55.617Z,14.32
2023-01-03T03:26:29.214Z,15.00
2023-01-03T03:29:02.437Z,15.60
2023-01-03T03:31:35.018Z,14.20
2023-01-03T03:34:09.329Z,14.68
2023-01-03T03:36:43.858Z,14.45
2023-01-03T03:39:31.943Z,15.93
2023-01-03T03:42:33.114Z,15.80
2023-01-03T03:45:08.471Z,16.20
2023-01-03T03:47:45.891Z,14.80
2023-01-03T03:50:20.626Z,14.32
2023-01-03T03:52:52.043Z,14.20
2023-01-03T03:55:24.024Z,14.50
2023-01-03T03:57:56.079Z,14.10
2023-01-03T04:00:27.401Z,15.48
2023-01-03T04:02:58.304Z,18.98
2023-01-03T04:05:29.489Z,21.00
2023-01-03T04:07:56.691Z,14.68
2023-01-03T04:10:24.460Z,15.57
2023-01-03T04:12:52.614Z,16.35
2023-01-03T04:15:22.995Z,20.80
2023-01-03T04:17:50.112Z,22.25
2023-01-03T04:20:18.896Z,16.77
2023-01-03T04:25:17.478Z,14.25
2023-01-03T04:27:44.714Z,13.48
2023-01-03T04:30:14.171Z,15.27
2023-01-03T04:32:41.437Z,15.30
2023-01-03T04:35:09.597Z,17.17
2023-01-03T04:37:37.181Z,14.38
2023-01-03T04:40:06.930Z,13.80
2023-01-03T04:42:52.756Z,15.80
2023-01-03T04:45:19.618Z,15.65
2023-01-03T04:47:48.934Z,15.75
2023-01-03T04:50:15.813Z,14.48
2023-01-03T04:52:45.231Z,14.90
2023-01-03T04:57:44.681Z,14.48
2023-01-03T05:00:12.626Z,15.00
2023-01-03T05:02:40.141Z,14.45
2023-01-03T05:05:10.394Z,16.00
2023-01-03T05:07:39.871Z,14.13
2023-01-03T05:12:37.629Z,14.25
2023-01-03T05:15:08.594Z,16.13
2023-01-03T05:17:41.951Z,14.10
2023-01-03T05:20:37.543Z,15.40
2023-01-03T05:23:23.676Z,13.73
2023-01-03T05:25:51.192Z,14.05
2023-01-03T05:28:22.091Z,13.63
2023-01-03T05:30:49.057Z,13.68
2023-01-03T05:33:16.675Z,13.52
2023-01-03T05:35:45.878Z,14.48
2023-01-03T05:38:19.933Z,12.82
2023-01-03T05:40:46.812Z,13.93
2023-01-03T05:43:14.341Z,14.05
2023-01-03T05:45:50.488Z,13.43
2023-01-03T05:48:18.505Z,13.25
2023-01-03T05:50:45.756Z,13.52
2023-01-03T05:53:13.284Z,15.45
2023-01-03T05:55:40.222Z,36.50
2023-01-03T05:58:08.256Z,20.75
2023-01-03T06:00:35.361Z,17.15
2023-01-03T06:03:04.157Z,15.40
2023-01-03T06:05:31.240Z,15.07
2023-01-03T06:08:01.264Z,15.27
2023-01-03T06:10:30.312Z,15.27
2023-01-03T06:13:01.242Z,15.05
2023-01-03T06:15:28.140Z,14.60
2023-01-03T06:17:57.659Z,14.40
2023-01-03T06:20:27.174Z,16.02
2023-01-03T06:22:54.993Z,14.38
2023-01-03T06:25:22.588Z,14.82
2023-01-03T06:27:50.349Z,16.33
2023-01-03T06:30:17.611Z,16.08
2023-01-03T06:32:45.119Z,16.58
2023-01-03T06:35:12.559Z,17.02
2023-01-03T06:37:41.574Z,15.93
2023-01-03T06:40:09.580Z,17.08
2023-01-03T06:42:39.614Z,16.25
2023-01-03T06:45:26.657Z,16.70
2023-01-03T06:48:12.397Z,17.25
2023-01-03T06:50:59.559Z,16.88
2023-01-03T06:53:35.197Z,17.88
2023-01-03T06:56:06.843Z,18.10
2023-01-03T06:58:34.222Z,18.55
2023-01-03T07:01:03.841Z,18.25
2023-01-03T07:03:31.526Z,18.98
2023-01-03T07:05:58.394Z,18.00
2023-01-03T07:08:25.598Z,18.55
2023-01-03T07:10:54.655Z,17.15
2023-01-03T07:13:40.748Z,20.52
2023-01-03T07:16:12.942Z,19.85
2023-01-03T07:18:40.081Z,20.83
2023-01-03T07:21:08.022Z,20.10
2023-01-03T07:23:35.491Z,22.48
2023-01-03T07:26:03.784Z,21.95
2023-01-03T07:28:30.955Z,21.75
2023-01-03T07:31:00.773Z,19.95
2023-01-03T07:33:28.597Z,20.25
2023-01-03T07:36:01.466Z,21.70
2023-01-03T07:38:30.877Z,21.65
2023-01-03T07:40:57.887Z,21.75
2023-01-03T07:43:39.161Z,19.70
2023-01-03T07:46:07.845Z,20.17
2023-01-03T07:48:35.870Z,21.67
2023-01-03T07:51:03.552Z,20.27
2023-01-03T07:53:32.987Z,19.92
2023-01-03T07:56:10.741Z,20.77
2023-01-03T07:58:43.140Z,20.35
2023-01-03T08:01:13.531Z,19.73
2023-01-03T08:03:41.521Z,18.02
2023-01-03T08:06:10.472Z,20.90
2023-01-03T08:08:38.477Z,18.92
2023-01-03T08:11:24.491Z,19.25
2023-01-03T08:13:55.448Z,21.75
2023-01-03T08:16:22.406Z,21.88
2023-01-03T08:18:49.937Z,20.90
2023-01-03T08:21:20.632Z,20.92
2023-01-03T08:23:48.938Z,21.58
2023-01-03T08:26:17.120Z,19.57
2023-01-03T08:28:44.861Z,18.83
2023-01-03T08:31:19.509Z,17.85
2023-01-03T08:33:55.520Z,17.80
2023-01-03T08:36:23.369Z,17.95
2023-01-03T08:38:55.395Z,17.83
2023-01-03T08:41:26.337Z,17.23
2023-01-03T08:43:57.374Z,17.77
2023-01-03T08:46:25.876Z,18.27
2023-01-03T08:48:56.803Z,18.33
2023-01-03T08:51:29.981Z,18.80
2023-01-03T08:53:57.305Z,19.33
2023-01-03T08:56:24.140Z,17.77
2023-01-03T08:58:53.660Z,18.23
2023-01-03T09:01:27.995Z,17.52
2023-01-03T09:03:56.061Z,17.00
2023-01-03T09:06:23.026Z,18.48
2023-01-03T09:08:50.232Z,17.10
2023-01-03T09:11:17.171Z,16.65
2023-01-03T09:13:46.739Z,16.60
2023-01-03T09:16:22.770Z,16.35
2023-01-03T09:18:54.668Z,16.00
2023-01-03T09:21:21.598Z,17.08
2023-01-03T09:23:49.129Z,16.90
2023-01-03T09:26:16.014Z,15.98
2023-01-03T09:28:43.162Z,16.40
2023-01-03T09:31:10.218Z,15.27
2023-01-03T09:33:37.499Z,19.65
2023-01-03T09:36:06.541Z,15.93
2023-01-03T09:38:38.534Z,15.40
2023-01-03T09:41:08.829Z,14.38
2023-01-03T09:43:40.928Z,15.38
2023-01-03T09:46:17.143Z,14.73
2023-01-03T09:48:45.474Z,14.25
2023-01-03T09:51:38.575Z,14.32
2023-01-03T09:54:29.738Z,14.55
2023-01-03T09:57:15.550Z,14.50
2023-01-03T10:00:01.725Z,16.20
2023-01-03T10:03:01.890Z,15.75
2023-01-03T10:05:41.942Z,14.23
2023-01-03T10:08:25.869Z,14.40
2023-01-03T10:11:03.120Z,15.38
2023-01-03T10:13:41.928Z,15.10
2023-01-03T10:16:18.720Z,16.17
2023-01-03T10:18:57.202Z,16.23
2023-01-03T10:21:36.252Z,15.80
2023-01-03T10:24:17.837Z,15.15
2023-01-03T10:26:45.123Z,14.02
2023-01-03T10:29:16.519Z,14.57
2023-01-03T10:32:00.733Z,15.38
2023-01-03T10:34:27.709Z,15.35
2023-01-03T10:36:55.209Z,16.27
2023-01-03T10:39:31.054Z,16.48
2023-01-03T10:41:59.935Z,15.98
2023-01-03T10:44:29.317Z,14.80
2023-01-03T10:46:58.530Z,14.60
2023-01-03T10:52:00.988Z,15.77
2023-01-03T10:54:36.863Z,16.33
2023-01-03T10:57:05.591Z,16.35
2023-01-03T10:59:33.277Z,17.10
2023-01-03T11:02:03.040Z,18.10
2023-01-03T11:04:31.927Z,16.45
2023-01-03T11:07:18.794Z,16.30
2023-01-03T11:09:52.350Z,17.27
2023-01-03T11:12:29.600Z,17.73
2023-01-03T11:14:58.105Z,17.08
2023-01-03T11:19:53.872Z,17.02
2023-01-03T11:22:37.444Z,17.33
2023-01-03T11:25:21.516Z,16.38
2023-01-03T11:28:16.473Z,17.10
2023-01-03T11:30:55.405Z,17.27
2023-01-03T11:36:11.861Z,16.90
2023-01-03T11:38:48.240Z,16.40
2023-01-03T11:41:29.808Z,16.27
2023-01-03T11:44:22.970Z,16.20
2023-01-03T11:47:04.154Z,16.48
2023-01-03T11:49:45.763Z,16.98
2023-01-03T11:55:17.345Z,19.20
2023-01-03T11:57:57.717Z,18.27
2023-01-03T12:00:32.303Z,19.17
2023-01-03T12:03:10.614Z,18.85
2023-01-03T12:05:42.858Z,18.15
2023-01-03T12:08:34.248Z,16.85
2023-01-03T12:11:14.755Z,17.70
2023-01-03T12:13:50.717Z,18.02
2023-01-03T12:16:27.143Z,17.90
2023-01-03T12:19:00.508Z,17.85
2023-01-03T12:21:34.586Z,16.35
2023-01-03T12:24:11.236Z,18.60
2023-01-03T12:26:43.344Z,18.58
2023-01-03T12:29:20.680Z,18.42
2023-01-03T12:31:51.471Z,18.65
2023-01-03T12:34:30.605Z,20.95
2023-01-03T12:37:06.095Z,19.88
2023-01-03T12:39:45.294Z,20.02
2023-01-03T12:42:21.969Z,19.73
2023-01-03T12:44:59.521Z,18.88
2023-01-03T12:47:34.574Z,18.37
2023-01-03T12:50:05.551Z,17.35
2023-01-03T12:52:36.238Z,18.58
2023-01-03T12:55:14.859Z,18.38
2023-01-03T12:58:00.134Z,20.77
2023-01-03T13:00:42.512Z,20.02
2023-01-03T13:03:26.654Z,18.95
2023-01-03T13:05:58.717Z,19.63
2023-01-03T13:08:34.593Z,19.38
2023-01-03T13:11:04.718Z,18.90
2023-01-03T13:13:33.030Z,19.25
2023-01-03T13:16:40.158Z,17.95
2023-01-03T13:19:44.688Z,16.35
2023-01-03T13:22:33.873Z,16.00
2023-01-03T13:25:34.548Z,15.07
2023-01-03T13:28:07.228Z,13.05
2023-01-03T13:30:36.025Z,12.93
2023-01-03T13:33:22.034Z,13.40
2023-01-03T13:35:58.913Z,15.57
2023-01-03T13:38:28.945Z,13.48
2023-01-03T13:43:50.207Z,13.95
2023-01-03T13:46:24.850Z,14.57
2023-01-03T13:48:57.666Z,14.10
2023-01-03T13:51:47.466Z,14.60
2023-01-03T13:54:57.481Z,13.15
2023-01-03T13:57:31.263Z,12.60
2023-01-03T14:00:00.144Z,13.32
2023-01-03T14:03:01.033Z,12.18
2023-01-03T14:06:00.476Z,15.30
2023-01-03T14:08:44.350Z,12.75
2023-01-03T14:11:32.476Z,12.75
2023-01-03T14:14:06.674Z,11.23
2023-01-03T14:16:46.616Z,11.90
2023-01-03T14:19:20.733Z,11.82
2023-01-03T14:21:53.024Z,12.90
2023-01-03T14:24:27.215Z,13.20
2023-01-03T14:26:54.856Z,12.32
2023-01-03T14:29:25.948Z,12.88
2023-01-03T14:31:56.052Z,13.00
2023-01-03T14:34:35.017Z,13.93
2023-01-03T14:37:06.099Z,12.65
2023-01-03T14:42:02.186Z,12.00
2023-01-03T14:44:39.824Z,12.25
2023-01-03T14:47:14.100Z,11.65
2023-01-03T14:49:46.901Z,11.60
2023-01-03T14:52:19.331Z,11.65
2023-01-03T14:55:04.294Z,11.55
2023-01-03T14:57:41.536Z,12.15
2023-01-03T15:00:18.780Z,19.63
2023-01-03T15:02:49.339Z,13.40
2023-01-03T15:05:27.404Z,12.77
2023-01-03T15:08:06.860Z,12.60
2023-01-03T15:10:42.795Z,12.98
2023-01-03T15:13:19.522Z,12.38
2023-01-03T15:15:53.546Z,13.43
2023-01-03T15:18:22.648Z,13.98
2023-01-03T15:20:55.250Z,15.32
2023-01-03T15:23:36.004Z,13.40
2023-01-03T15:26:04.357Z,12.32
2023-01-03T15:28:38.043Z,12.52
2023-01-03T15:31:27.488Z,13.40
2023-01-03T15:34:02.786Z,13.05
2023-01-03T15:36:32.672Z,15.90
2023-01-03T15:39:01.115Z,17.33
2023-01-03T15:42:12.260Z,15.80
2023-01-03T15:44:38.799Z,14.25
2023-01-03T15:47:08.694Z,14.65
2023-01-03T15:49:40.154Z,14.50
2023-01-03T15:52:12.179Z,14.30
2023-01-03T15:54:44.799Z,15.88
2023-01-03T15:57:15.261Z,15.10
2023-01-03T15:59:46.911Z,14.45
2023-01-03T16:02:18.980Z,14.68
2023-01-03T16:04:49.656Z,14.35
2023-01-03T16:07:16.935Z,13.05
2023-01-03T16:09:48.086Z,14.95
2023-01-03T16:12:23.549Z,14.38
2023-01-03T16:14:53.525Z,14.10
2023-01-03T16:17:25.350Z,15.75
2023-01-03T16:19:56.724Z,14.85
2023-01-03T16:22:34.579Z,14.70
2023-01-03T16:25:04.919Z,14.73
2023-01-03T16:27:32.512Z,14.25
2023-01-03T16:29:59.587Z,14.93
2023-01-03T16:32:29.659Z,14.27
2023-01-03T16:35:00.331Z,14.75
2023-01-03T16:37:30.773Z,14.80
2023-01-03T16:39:59.568Z,14.68
2023-01-03T16:42:29.508Z,19.65
2023-01-03T16:44:58.287Z,17.38
2023-01-03T16:47:30.872Z,21.17
2023-01-03T16:50:03.613Z,24.60
2023-01-03T16:52:36.306Z,21.17
2023-01-03T16:55:12.256Z,14.70
2023-01-03T16:57:48.711Z,14.13
2023-01-03T17:00:21.602Z,13.80
2023-01-03T17:02:50.083Z,13.10
2023-01-03T17:05:19.495Z,13.68
2023-01-03T17:07:49.076Z,13.52
2023-01-03T17:10:25.965Z,13.00
2023-01-03T17:12:56.226Z,13.60
2023-01-03T17:15:23.387Z,12.10
2023-01-03T17:17:50.620Z,10.65
2023-01-03T17:20:28.114Z,10.13
2023-01-03T17:22:59.162Z,11.13
2023-01-03T17:25:26.678Z,10.82
2023-01-03T17:27:57.348Z,11.27
2023-01-03T17:30:27.598Z,12.18
2023-01-03T17:32:55.621Z,11.80
2023-01-03T17:35:26.655Z,12.68
2023-01-03T17:38:24.683Z,13.77
2023-01-03T17:40:46.763Z,12.77
2023-01-03T17:43:23.299Z,13.40
2023-01-03T17:46:16.099Z,14.13
2023-01-03T17:49:07.661Z,14.93
2023-01-03T17:51:40.138Z,14.45
2023-01-03T17:54:17.688Z,15.15
2023-01-03T17:56:47.398Z,14.57
2023-01-03T17:59:25.895Z,14.48
2023-01-03T18:02:02.474Z,15.05
2023-01-03T18:04:57.666Z,14.65
2023-01-03T18:07:23.055Z,16.30
2023-01-03T18:09:52.288Z,17.70
2023-01-03T18:12:22.074Z,17.27
2023-01-03T18:14:51.143Z,19.02
2023-01-03T18:17:27.768Z,17.88
2023-01-03T18:19:55.734Z,17.77
2023-01-03T18:22:23.423Z,17.52
2023-01-03T18:24:51.685Z,17.30
2023-01-03T18:27:18.911Z,18.13
2023-01-03T18:29:51.461Z,17.77
2023-01-03T18:32:27.779Z,16.92
2023-01-03T18:34:55.433Z,17.10
2023-01-03T18:37:25.753Z,15.82
2023-01-03T18:39:53.188Z,15.52
2023-01-03T18:42:38.991Z,15.88
2023-01-03T18:45:11.723Z,17.15
2023-01-03T18:47:38.891Z,17.77
2023-01-03T18:50:06.875Z,14.77
2023-01-03T18:52:36.656Z,13.57
2023-01-03T18:55:22.374Z,12.88
2023-01-03T18:57:53.326Z,11.35
2023-01-03T19:00:23.683Z,10.63
2023-01-03T19:02:52.228Z,11.23
2023-01-03T19:05:22.791Z,11.30
2023-01-03T19:07:51.152Z,11.63
2023-01-03T19:10:22.921Z,10.55
2023-01-03T19:12:54.846Z,9.50
2023-01-03T19:15:25.784Z,10.75
2023-01-03T19:18:00.165Z,11.68
2023-01-03T19:20:31.345Z,11.18
2023-01-03T19:23:01.287Z,10.73
2023-01-03T19:25:30.250Z,11.55
2023-01-03T19:28:00.315Z,11.32
2023-01-03T19:30:37.971Z,12.48
2023-01-03T19:33:12.225Z,12.65
2023-01-03T19:35:39.536Z,12.20
2023-01-03T19:38:09.390Z,13.40
2023-01-03T19:40:39.218Z,14.95
2023-01-03T19:43:06.441Z,12.95
2023-01-03T19:45:37.097Z,14.07
2023-01-03T19:48:13.254Z,14.98
2023-01-03T19:50:40.616Z,13.85
2023-01-03T19:53:13.956Z,14.13
2023-01-03T19:55:45.222Z,14.25
2023-01-03T19:58:17.075Z,15.02
2023-01-03T20:00:47.816Z,14.48
2023-01-03T20:03:23.397Z,17.92
2023-01-03T20:05:50.734Z,14.65
2023-01-03T20:08:17.733Z,12.45
2023-01-03T20:10:45.334Z,16.25
2023-01-03T20:13:20.746Z,13.50
2023-01-03T20:16:02.223Z,10.60
2023-01-03T20:18:35.578Z,11.55
2023-01-03T20:21:50.629Z,13.30
2023-01-03T20:24:23.513Z,12.50
2023-01-03T20:26:53.799Z,12.55
2023-01-03T20:29:23.484Z,11.75
2023-01-03T20:31:57.903Z,12.05
2023-01-03T20:34:26.920Z,11.90
2023-01-03T20:37:01.961Z,10.88
2023-01-03T20:39:32.247Z,10.82
2023-01-03T20:42:18.804Z,10.93
2023-01-03T20:44:45.890Z,11.13
2023-01-03T20:47:15.416Z,10.90
2023-01-03T20:49:48.598Z,10.65
2023-01-03T20:52:17.773Z,10.48
2023-01-03T20:54:47.460Z,9.90
2023-01-03T20:57:36.287Z,10.90
2023-01-03T21:00:05.338Z,10.00
2023-01-03T21:02:34.190Z,10.00
2023-01-03T21:05:04.710Z,9.95
2023-01-03T21:07:50.559Z,11.27
2023-01-03T21:10:24.954Z,12.27
2023-01-03T21:12:55.571Z,12.00
2023-01-03T21:15:26.934Z,12.63
2023-01-03T21:17:55.885Z,11.02
2023-01-03T21:20:26.456Z,10.68
2023-01-03T21:25:29.253Z,10.57
2023-01-03T21:27:59.891Z,10.90
2023-01-03T21:30:33.783Z,11.30
2023-01-03T21:33:05.102Z,11.20
2023-01-03T21:35:36.741Z,12.25
2023-01-03T21:38:05.303Z,11.80
2023-01-03T21:40:32.420Z,12.95
2023-01-03T21:43:07.413Z,13.27
2023-01-03T21:45:37.936Z,12.80
2023-01-03T21:48:10.393Z,13.02
2023-01-03T21:50:42.110Z,14.13
2023-01-03T21:53:12.604Z,13.60
2023-01-03T21:55:41.333Z,12.80
2023-01-03T21:58:13.559Z,13.82
2023-01-03T22:00:41.172Z,14.35
2023-01-03T22:03:31.018Z,13.60
2023-01-03T22:06:06.020Z,13.73
2023-01-03T22:08:33.223Z,13.60
2023-01-03T22:11:00.393Z,14.60
2023-01-03T22:13:27.710Z,14.30
2023-01-03T22:15:56.022Z,14.80
2023-01-03T22:18:24.818Z,15.07
2023-01-03T22:20:51.906Z,13.00
2023-01-03T22:23:20.746Z,13.75
2023-01-03T22:25:50.063Z,12.85
2023-01-03T22:28:18.104Z,12.93
2023-01-03T22:30:45.057Z,13.65
2023-01-03T22:33:12.151Z,13.10
2023-01-03T22:35:40.467Z,13.10
2023-01-03T22:38:07.687Z,12.38
2023-01-03T22:40:37.346Z,11.73
2023-01-03T22:43:10.496Z,13.07
2023-01-03T22:45:38.961Z,13.02
2023-01-03T22:48:06.911Z,11.82
2023-01-03T22:50:33.808Z,12.63
2023-01-03T22:53:02.409Z,11.90
2023-01-03T22:55:34.980Z,12.93
2023-01-03T22:58:05.245Z,12.77
2023-01-03T23:00:35.063Z,13.50
2023-01-03T23:03:02.915Z,13.27
2023-01-03T23:05:29.911Z,12.77
2023-01-03T23:07:57.119Z,12.60
2023-01-03T23:10:25.436Z,12.48
2023-01-03T23:12:58.952Z,12.30
2023-01-03T23:15:27.599Z,13.10
2023-01-03T23:18:04.414Z,12.73
2023-01-03T23:20:35.657Z,13.55
2023-01-03T23:23:05.785Z,12.65
2023-01-03T23:25:35.618Z,13.40
2023-01-03T23:28:02.725Z,12.13
2023-01-03T23:30:29.732Z,11.50
2023-01-03T23:32:57.030Z,11.50
2023-01-03T23:35:26.763Z,12.60
2023-01-03T23:37:57.776Z,13.23
2023-01-03T23:40:27.134Z,12.25
2023-01-03T23:42:55.669Z,12.07
2023-01-03T23:45:22.509Z,12.15
2023-01-03T23:47:51.788Z,11.98
2023-01-03T23:52:45.652Z,12.68
2023-01-03T23:55:13.170Z,13.77
2023-01-03T23:57:40.515Z,13.60
